Time;durP1;ratioP1;P1;durP2;ratioP2;P2;SDS_P1;SDS_P2;PMS_P1;PMS_P2;Temp;Humidity;BMP_temperature;BMP_pressure;BME280_temperature;BME280_humidity;BME280_pressure;Samples;Min_cycle;Max_cycle;Signal;HPM_P1;HPM_P2
2023/03/08 00:04:44;;;;;;;0.10;0.10;;;;;;;-2.23;93.50;99702.19;10538609;28;20036;-87
2023/03/08 00:09:45;;;;;;;0.55;0.50;;;;;;;-2.23;93.53;99696.19;10542307;28;20046;-86
2023/03/08 00:14:49;;;;;;;3.03;0.60;;;;;;;-2.21;93.82;99704.84;10543880;28;20172;-87
2023/03/08 00:19:51;;;;;;;0.20;0.20;;;;;;;-2.22;93.69;99708.19;10525645;28;20083;-87
2023/03/08 00:24:52;;;;;;;0.43;0.43;;;;;;;-2.24;94.00;99707.25;10534097;28;20127;-86
2023/03/08 00:29:54;;;;;;;0.20;0.20;;;;;;;-2.26;94.03;99704.59;10560891;28;20404;-86
2023/03/08 00:34:59;;;;;;;0.30;0.30;;;;;;;-2.30;93.81;99710.38;10531554;28;20039;-86
2023/03/08 00:40:01;;;;;;;0.65;0.40;;;;;;;-2.33;94.30;99715.34;10544723;28;20036;-86
2023/03/08 00:45:03;;;;;;;0.28;0.28;;;;;;;-2.32;94.10;99710.28;10533247;28;20044;-86
2023/03/08 00:50:05;;;;;;;0.63;0.63;;;;;;;-2.29;94.32;99716.41;10527453;28;20048;-86
2023/03/08 00:55:07;;;;;;;0.30;0.30;;;;;;;-2.30;94.49;99707.81;10508599;28;20135;-87
2023/03/08 01:00:11;;;;;;;0.40;0.40;;;;;;;-2.32;94.43;99702.59;10541328;28;20142;-87
2023/03/08 01:05:13;;;;;;;0.20;0.20;;;;;;;-2.32;94.53;99694.03;10578648;27;20056;-87
2023/03/08 01:10:15;;;;;;;0.10;0.10;;;;;;;-2.34;94.65;99693.09;10585563;27;20032;-86
2023/03/08 01:15:16;;;;;;;0.30;0.30;;;;;;;-2.38;94.48;99681.78;10585118;27;20105;-86
2023/03/08 01:20:18;;;;;;;0.38;0.38;;;;;;;-2.41;94.73;99691.88;10554365;28;20415;-86
2023/03/08 01:25:20;;;;;;;0.35;0.35;;;;;;;-2.40;94.47;99682.50;10579752;27;20035;-86
2023/03/08 01:30:24;;;;;;;0.30;0.30;;;;;;;-2.38;94.81;99686.03;10577146;27;20136;-86
2023/03/08 01:35:25;;;;;;;0.60;0.60;;;;;;;-2.42;94.67;99692.66;10593801;27;20052;-86
2023/03/08 01:40:27;;;;;;;0.25;0.25;;;;;;;-2.47;94.85;99690.69;10548962;28;20097;-86
2023/03/08 01:46:06;;;;;;;0.22;0.22;;;;;;;-2.42;94.82;99686.66;10591022;27;20046;-87
2023/03/08 01:51:12;;;;;;;0.63;0.55;;;;;;;-2.43;95.03;99680.66;10565154;27;20051;-86
2023/03/08 01:56:17;;;;;;;0.20;0.20;;;;;;;-2.46;94.93;99677.06;10574118;27;20601;-87
2023/03/08 02:01:19;;;;;;;1.67;0.55;;;;;;;-2.49;94.76;99673.53;10597270;27;20070;-86
2023/03/08 02:06:22;;;;;;;0.20;0.20;;;;;;;-2.52;94.71;99667.38;10562897;27;20035;-86
2023/03/08 02:11:24;;;;;;;0.20;0.20;;;;;;;-2.56;94.94;99665.47;10553991;28;20044;-86
2023/03/08 02:16:29;;;;;;;0.90;0.75;;;;;;;-2.58;95.19;99659.34;10571446;27;20053;-86
2023/03/08 02:21:31;;;;;;;0.15;0.15;;;;;;;-2.62;95.24;99658.31;10550287;27;20046;-87
2023/03/08 02:26:36;;;;;;;0.30;0.30;;;;;;;-2.69;95.15;99658.81;10596268;27;20090;-86
2023/03/08 02:31:39;;;;;;;0.60;0.60;;;;;;;-2.72;95.06;99657.00;10582316;27;20512;-87
2023/03/08 02:36:42;;;;;;;0.50;0.50;;;;;;;-2.72;95.37;99663.78;10553392;27;20720;-86
2023/03/08 02:41:45;;;;;;;0.30;0.30;;;;;;;-2.75;95.19;99656.81;10539122;27;20065;-87
2023/03/08 02:46:50;;;;;;;0.20;0.20;;;;;;;-2.72;95.31;99644.19;10598044;27;20466;-86
2023/03/08 02:51:51;;;;;;;0.30;0.30;;;;;;;-2.73;95.68;99654.31;10571464;27;20043;-86
2023/03/08 02:56:54;;;;;;;0.38;0.28;;;;;;;-2.69;95.56;99651.13;10570940;27;20054;-86
2023/03/08 03:01:56;;;;;;;0.35;0.35;;;;;;;-2.73;95.55;99654.31;10579948;27;20582;-87
2023/03/08 03:06:59;;;;;;;1.02;0.43;;;;;;;-2.77;95.42;99649.84;10584088;27;20051;-87
2023/03/08 03:12:02;;;;;;;0.90;0.90;;;;;;;-2.79;95.58;99657.47;10564131;28;20048;-86
2023/03/08 03:17:09;;;;;;;0.65;0.65;;;;;;;-2.77;95.59;99658.41;10556016;27;20052;-86
2023/03/08 03:22:10;;;;;;;0.77;0.35;;;;;;;-2.78;95.84;99651.53;10580584;28;20054;-84
2023/03/08 03:27:12;;;;;;;0.52;0.52;;;;;;;-2.70;95.96;99657.94;10584798;27;20598;-86
2023/03/08 03:32:14;;;;;;;0.35;0.35;;;;;;;-2.73;96.07;99651.75;10560842;27;20453;-86
2023/03/08 03:37:16;;;;;;;0.52;0.40;;;;;;;-2.80;95.97;99650.56;10543469;28;20040;-86
2023/03/08 03:42:18;;;;;;;1.08;0.98;;;;;;;-2.83;95.92;99647.84;10537575;28;20621;-86
2023/03/08 03:47:27;;;;;;;0.45;0.40;;;;;;;-2.79;95.86;99649.78;10554231;28;20039;-87
2023/03/08 03:52:32;;;;;;;0.28;0.28;;;;;;;-2.76;96.13;99646.47;10536607;28;20101;-86
2023/03/08 03:57:37;;;;;;;0.40;0.40;;;;;;;-2.82;95.99;99659.88;10544456;28;20047;-86
2023/03/08 04:02:40;;;;;;;1.52;1.33;;;;;;;-2.77;95.99;99665.22;10562169;28;20069;-87
2023/03/08 04:07:45;;;;;;;1.08;0.98;;;;;;;-2.84;95.87;99669.13;10551571;27;20047;-86
2023/03/08 04:12:48;;;;;;;0.17;0.17;;;;;;;-2.85;96.31;99675.09;10553722;27;20040;-87
2023/03/08 04:17:51;;;;;;;0.50;0.50;;;;;;;-2.82;96.27;99667.56;10534882;28;20044;-86
2023/03/08 04:22:55;;;;;;;0.52;0.52;;;;;;;-2.83;96.24;99655.53;10542217;28;20036;-86
2023/03/08 04:28:06;;;;;;;;;;;;;;;-2.87;96.21;99656.16;10560308;28;20128;-86
2023/03/08 04:33:08;;;;;;;0.45;0.32;;;;;;;-2.93;96.42;99651.59;10535036;28;19924;-86
2023/03/08 04:38:17;;;;;;;1.23;0.75;;;;;;;-2.92;96.34;99665.31;10531244;28;20142;-85
2023/03/08 04:43:22;;;;;;;2.65;1.10;;;;;;;-2.87;96.21;99657.06;10552843;28;20119;-86
2023/03/08 04:48:24;;;;;;;1.17;1.00;;;;;;;-2.87;96.58;99651.94;10545806;28;20142;-84
2023/03/08 04:53:28;;;;;;;0.43;0.43;;;;;;;-2.90;96.56;99646.66;10556053;28;20039;-86
2023/03/08 04:58:38;;;;;;;0.73;0.68;;;;;;;-2.91;96.34;99644.00;10550679;28;20043;-88
2023/03/08 05:03:44;;;;;;;0.88;0.82;;;;;;;-2.96;96.45;99635.19;10553428;28;20044;-86
2023/03/08 05:08:46;;;;;;;0.63;0.60;;;;;;;-3.02;96.50;99634.09;10541240;28;20043;-85
2023/03/08 05:13:48;;;;;;;1.55;1.15;;;;;;;-2.97;96.53;99631.75;10550259;28;20059;-84
2023/03/08 05:18:51;;;;;;;0.75;0.75;;;;;;;-2.95;96.54;99631.84;10540573;28;20139;-85
2023/03/08 05:23:58;;;;;;;0.55;0.55;;;;;;;-2.96;96.27;99638.63;10541474;28;20036;-84
2023/03/08 05:29:05;;;;;;;0.40;0.40;;;;;;;-2.95;96.71;99634.41;10540626;28;20089;-84
2023/03/08 05:34:09;;;;;;;0.88;0.85;;;;;;;-2.93;96.64;99622.53;10546344;28;20143;-84
2023/03/08 05:39:13;;;;;;;0.57;0.57;;;;;;;-2.97;96.62;99621.53;10565911;27;20515;-84
2023/03/08 05:44:37;;;;;;;1.45;1.13;;;;;;;-2.93;96.71;99608.03;10571706;27;20482;-84
2023/03/08 05:49:41;;;;;;;0.98;0.85;;;;;;;-2.86;96.55;99604.13;10591188;27;20066;-84
2023/03/08 05:54:43;;;;;;;0.93;0.85;;;;;;;-2.88;96.58;99593.81;10569178;27;20651;-84
2023/03/08 05:59:49;;;;;;;2.50;1.20;;;;;;;-2.88;96.62;99591.25;10533173;28;20059;-85
2023/03/08 06:04:54;;;;;;;1.30;1.20;;;;;;;-2.86;96.40;99593.88;10529505;28;20122;-84
2023/03/08 06:09:58;;;;;;;1.83;1.25;;;;;;;-2.90;96.79;99585.19;10540495;28;20067;-84
2023/03/08 06:15:00;;;;;;;0.32;0.32;;;;;;;-2.81;96.64;99592.44;10529945;28;20127;-86
2023/03/08 06:20:08;;;;;;;0.68;0.60;;;;;;;-2.76;96.70;99596.13;10512872;28;20051;-85
2023/03/08 06:25:13;;;;;;;0.95;0.93;;;;;;;-2.76;96.56;99602.91;10523204;28;20043;-83
2023/03/08 06:30:16;;;;;;;1.02;0.80;;;;;;;-2.70;96.67;99588.75;10505282;28;20074;-84
2023/03/08 06:35:18;;;;;;;3.30;1.15;;;;;;;-2.62;96.93;99589.13;10509694;28;20071;-82
2023/03/08 06:40:26;;;;;;;0.57;0.57;;;;;;;-2.56;96.78;99583.44;10521760;28;20051;-82
2023/03/08 06:45:28;;;;;;;1.20;1.05;;;;;;;-2.48;96.82;99577.00;10526091;28;20105;-84
2023/03/08 06:50:29;;;;;;;0.65;0.65;;;;;;;-2.42;96.90;99581.56;10528260;28;20108;-83
2023/03/08 06:55:34;;;;;;;0.60;0.60;;;;;;;-2.36;96.89;99561.34;10524472;28;20036;-83
2023/03/08 07:00:36;;;;;;;1.48;1.38;;;;;;;-2.28;97.11;99569.41;10509381;28;20031;-83
2023/03/08 07:05:38;;;;;;;1.50;1.40;;;;;;;-2.23;96.98;99567.97;10550970;28;20035;-83
2023/03/08 07:10:40;;;;;;;0.52;0.52;;;;;;;-2.10;97.05;99569.41;10521756;28;20039;-83
2023/03/08 07:15:41;;;;;;;1.70;1.33;;;;;;;-1.99;96.95;99579.38;10523099;28;20098;-83
2023/03/08 07:20:43;;;;;;;1.30;1.20;;;;;;;-1.96;96.99;99564.13;10531044;28;20540;-83
2023/03/08 07:25:45;;;;;;;2.20;1.77;;;;;;;-1.86;97.34;99562.00;10543946;28;20060;-83
2023/03/08 07:30:51;;;;;;;2.00;1.55;;;;;;;-1.87;96.85;99578.22;10532347;28;20051;-83
2023/03/08 07:35:53;;;;;;;2.17;1.98;;;;;;;-1.79;97.20;99572.66;10539568;28;20036;-85
2023/03/08 07:40:55;;;;;;;1.85;1.17;;;;;;;-1.67;97.20;99581.72;10540413;28;20046;-82
2023/03/08 07:46:01;;;;;;;0.80;0.68;;;;;;;-1.51;97.13;99585.88;10546521;28;20106;-82
2023/03/08 07:51:06;;;;;;;1.08;1.05;;;;;;;-1.48;97.10;99584.31;10530173;28;20052;-84
2023/03/08 07:56:08;;;;;;;1.33;1.10;;;;;;;-1.27;96.96;99584.41;10510516;28;20055;-83
2023/03/08 08:01:12;;;;;;;1.30;1.08;;;;;;;-1.17;97.23;99589.97;10532877;28;20054;-84
2023/03/08 08:06:13;;;;;;;1.48;1.38;;;;;;;-1.07;97.22;99581.88;10519135;28;20537;-84
2023/03/08 08:11:18;;;;;;;1.15;1.02;;;;;;;-1.03;96.83;99582.91;10551351;28;20039;-85
2023/03/08 08:16:20;;;;;;;2.65;2.15;;;;;;;-0.99;97.06;99575.38;10534170;28;20040;-84
2023/03/08 08:21:22;;;;;;;2.08;1.38;;;;;;;-1.00;96.77;99581.31;10529217;28;20069;-85
2023/03/08 08:26:24;;;;;;;1.85;1.23;;;;;;;-0.87;96.71;99580.19;10559962;28;20047;-86
2023/03/08 08:31:29;;;;;;;2.45;1.75;;;;;;;-0.67;96.62;99587.88;10550529;28;20031;-85
2023/03/08 08:36:31;;;;;;;3.88;2.53;;;;;;;-0.56;96.39;99579.78;10551117;28;20645;-85
2023/03/08 08:41:33;;;;;;;2.20;1.75;;;;;;;-0.50;96.09;99580.88;10547291;28;20055;-85
2023/03/08 08:46:35;;;;;;;5.80;2.33;;;;;;;-0.40;96.36;99585.59;10541802;28;20059;-85
2023/03/08 08:51:36;;;;;;;1.65;1.55;;;;;;;-0.27;96.16;99580.13;10535789;28;20036;-84
2023/03/08 08:56:41;;;;;;;4.57;1.70;;;;;;;-0.08;95.55;99578.31;10538576;28;20108;-85
2023/03/08 09:01:43;;;;;;;3.75;2.20;;;;;;;0.07;95.54;99566.03;10537046;28;20035;-84
2023/03/08 09:06:48;;;;;;;1.40;1.30;;;;;;;0.33;95.27;99563.59;10540916;28;20027;-86
2023/03/08 09:11:49;;;;;;;1.95;1.55;;;;;;;0.79;94.84;99546.41;10524808;28;20047;-86
2023/03/08 09:16:55;;;;;;;2.17;1.98;;;;;;;0.88;94.60;99554.47;10521598;28;20121;-87
2023/03/08 09:21:57;;;;;;;1.08;0.98;;;;;;;1.07;94.12;99543.13;10531186;28;20347;-87
2023/03/08 09:26:58;;;;;;;2.70;1.58;;;;;;;1.28;93.37;99536.97;10534972;28;20587;-86
2023/03/08 09:32:00;;;;;;;0.98;0.98;;;;;;;1.44;92.95;99533.19;10546562;28;20048;-86
2023/03/08 09:37:02;;;;;;;4.15;2.33;;;;;;;1.56;91.95;99531.91;10526797;28;20039;-86
2023/03/08 09:42:05;;;;;;;0.85;0.82;;;;;;;1.69;91.46;99522.00;10539016;28;20047;-85
2023/03/08 09:47:28;;;;;;;2.90;2.17;;;;;;;2.09;91.04;99512.94;10545510;28;20035;-85
2023/03/08 09:52:49;;;;;;;4.55;2.65;;;;;;;2.22;90.27;99514.16;10543052;28;20051;-85
2023/03/08 09:57:52;;;;;;;;;;;;;;;1.96;89.09;99508.22;10547651;28;20455;-85
2023/03/08 10:03:25;;;;;;;3.47;2.10;;;;;;;1.79;88.42;99502.50;10564523;28;19923;-85
2023/03/08 10:08:37;;;;;;;0.98;0.85;;;;;;;1.68;87.85;99494.41;10501319;28;20512;-85
2023/03/08 10:13:40;;;;;;;3.63;1.75;;;;;;;1.87;87.76;99489.00;10544995;28;20498;-85
2023/03/08 10:18:44;;;;;;;2.65;2.28;;;;;;;1.98;87.55;99496.22;10550053;28;20112;-84
2023/03/08 10:23:51;;;;;;;3.15;2.05;;;;;;;2.03;86.97;99484.34;10547351;28;20407;-85
2023/03/08 10:28:53;;;;;;;4.28;2.85;;;;;;;2.19;86.85;99481.41;10542818;28;20047;-85
2023/03/08 10:34:12;;;;;;;3.47;2.75;;;;;;;2.05;86.18;99478.38;10529132;28;20396;-85
2023/03/08 10:39:15;;;;;;;6.10;2.57;;;;;;;2.03;85.76;99471.44;10511150;28;20048;-85
2023/03/08 10:44:39;;;;;;;4.95;2.83;;;;;;;2.34;85.70;99480.06;10529960;28;20040;-85
2023/03/08 10:49:42;;;;;;;2.85;1.98;;;;;;;2.55;85.35;99477.22;10519998;28;20853;-84
2023/03/08 10:54:43;;;;;;;4.70;3.22;;;;;;;2.43;84.87;99480.34;10534780;28;20032;-84
2023/03/08 10:59:49;;;;;;;4.53;3.55;;;;;;;2.40;84.55;99464.75;10542764;28;20126;-85
2023/03/08 11:04:53;;;;;;;3.88;2.47;;;;;;;2.48;84.51;99464.13;10513191;28;20688;-82
2023/03/08 11:10:16;;;;;;;6.95;3.85;;;;;;;2.62;84.12;99459.34;10552884;28;20063;-83
2023/03/08 11:15:19;;;;;;;5.35;3.80;;;;;;;2.21;83.85;99461.63;10510460;28;20032;-84
2023/03/08 11:20:25;;;;;;;7.85;4.57;;;;;;;2.47;83.42;99459.78;10537010;28;20035;-84
2023/03/08 11:25:47;;;;;;;10.63;5.68;;;;;;;2.88;83.04;99448.84;10528732;28;20516;-84
2023/03/08 11:31:05;;;;;;;10.82;4.63;;;;;;;3.16;82.39;99434.06;10514132;28;20059;-84
2023/03/08 11:36:54;;;;;;;3.10;2.17;;;;;;;3.20;81.76;99430.72;10535898;28;20448;-81
2023/03/08 11:42:27;;;;;;;4.50;2.60;;;;;;;3.28;81.48;99431.75;10469435;28;20047;-84
2023/03/08 11:47:52;;;;;;;7.55;3.53;;;;;;;3.56;81.07;99429.84;10548037;28;20564;-84
2023/03/08 11:53:12;;;;;;;6.15;3.28;;;;;;;3.68;80.43;99418.91;10550238;28;20101;-83
2023/03/08 11:58:22;;;;;;;7.38;4.05;;;;;;;3.67;80.08;99412.84;10536360;28;20134;-84
2023/03/08 12:03:28;;;;;;;7.88;4.00;;;;;;;3.69;79.62;99413.78;10543513;28;20051;-83
2023/03/08 12:08:35;;;;;;;4.80;2.53;;;;;;;3.44;78.81;99403.66;10545319;28;20055;-83
2023/03/08 12:13:45;;;;;;;4.85;3.33;;;;;;;2.93;78.14;99400.72;10532538;28;20044;-83
2023/03/08 12:19:15;;;;;;;4.05;2.30;;;;;;;2.88;78.06;99398.84;10555185;28;20487;-83
2023/03/08 12:24:39;;;;;;;6.05;2.88;;;;;;;3.28;78.56;99395.53;10526576;28;20031;-82
2023/03/08 12:30:01;;;;;;;1.73;1.25;;;;;;;3.28;78.27;99392.09;10548722;28;20044;-83
2023/03/08 12:35:49;;;;;;;1.67;1.45;;;;;;;3.24;77.92;99395.44;10575995;27;20089;-83
2023/03/08 12:40:53;;;;;;;3.40;2.20;;;;;;;3.22;77.60;99390.22;10579209;27;20522;-84
2023/03/08 12:45:58;;;;;;;2.20;1.75;;;;;;;3.09;77.25;99383.00;10590322;27;20054;-83
2023/03/08 12:51:04;;;;;;;1.38;0.82;;;;;;;3.33;77.29;99382.72;10598583;27;20040;-82
2023/03/08 12:56:09;;;;;;;0.82;0.57;;;;;;;3.24;76.15;99388.53;10572022;27;20050;-82
2023/03/08 13:01:36;;;;;;;1.15;1.00;;;;;;;3.32;75.90;99397.38;10605930;27;20040;-82
2023/03/08 13:07:17;;;;;;;2.38;0.95;;;;;;;3.43;75.06;99407.09;10578198;27;20046;-82
2023/03/08 13:13:00;;;;;;;6.47;1.98;;;;;;;3.64;74.57;99389.47;10585566;27;20088;-83
2023/03/08 13:18:14;;;;;;;3.38;1.50;;;;;;;3.82;74.49;99389.00;10592933;27;20035;-83
2023/03/08 13:23:37;;;;;;;1.45;0.85;;;;;;;3.86;73.99;99387.38;10586033;27;20036;-82
2023/03/08 13:28:41;;;;;;;0.47;0.47;;;;;;;3.57;72.77;99395.34;10561836;27;20043;-82
2023/03/08 13:33:52;;;;;;;;;;;;;;;3.58;72.38;99378.97;10525571;28;20039;-84
2023/03/08 13:39:06;;;;;;;2.15;0.93;;;;;;;3.66;71.96;99397.28;10536084;28;19924;-82
2023/03/08 13:44:25;;;;;;;4.60;1.05;;;;;;;3.74;71.88;99384.50;10575645;28;20039;-81
2023/03/08 13:49:40;;;;;;;1.42;0.95;;;;;;;3.44;70.89;99385.53;10553909;28;20534;-84
2023/03/08 13:54:47;;;;;;;1.52;1.10;;;;;;;3.58;70.99;99372.94;10516134;28;20032;-81
2023/03/08 13:59:57;;;;;;;0.70;0.70;;;;;;;3.75;71.02;99379.34;10520794;28;20040;-82
2023/03/08 14:04:59;;;;;;;1.65;1.08;;;;;;;3.60;71.11;99372.13;10528979;28;20466;-82
2023/03/08 14:10:00;;;;;;;2.25;1.38;;;;;;;3.80;71.42;99363.91;10535177;28;20036;-83
2023/03/08 14:15:04;;;;;;;2.05;0.98;;;;;;;3.86;71.90;99369.25;10586840;27;20368;-83
2023/03/08 14:20:32;;;;;;;2.80;1.45;;;;;;;3.75;71.57;99368.13;10601248;27;20046;-83
2023/03/08 14:25:34;;;;;;;3.28;2.05;;;;;;;3.76;71.67;99362.13;10533990;28;20126;-82
2023/03/08 14:30:46;;;;;;;3.75;2.05;;;;;;;3.77;71.71;99358.66;10532840;28;20097;-84
2023/03/08 14:35:54;;;;;;;3.80;1.48;;;;;;;3.40;71.36;99363.91;10538836;28;20040;-83
2023/03/08 14:40:58;;;;;;;1.88;0.82;;;;;;;3.54;71.39;99361.63;10538256;28;20086;-85
2023/03/08 14:46:03;;;;;;;2.13;0.82;;;;;;;3.47;71.19;99352.88;10522801;28;20052;-85
2023/03/08 14:51:17;;;;;;;0.90;0.57;;;;;;;3.58;70.73;99342.75;10532435;28;20384;-84
2023/03/08 14:56:19;;;;;;;2.33;1.40;;;;;;;3.58;70.59;99342.75;10513799;28;20032;-85
2023/03/08 15:01:29;;;;;;;1.27;1.00;;;;;;;3.61;70.72;99342.81;10556184;28;20040;-85
2023/03/08 15:06:35;;;;;;;3.53;1.42;;;;;;;3.43;70.70;99332.06;10522368;28;20518;-85
2023/03/08 15:11:37;;;;;;;4.68;1.90;;;;;;;3.44;71.06;99329.50;10538595;28;20048;-86
2023/03/08 15:16:39;;;;;;;5.25;2.92;;;;;;;3.45;71.32;99322.59;10534187;28;20035;-85
2023/03/08 15:21:41;;;;;;;1.73;1.48;;;;;;;3.45;71.11;99328.69;10518350;28;20036;-84
2023/03/08 15:26:44;;;;;;;1.83;1.17;;;;;;;3.26;70.84;99324.78;10532536;28;20055;-84
2023/03/08 15:31:45;;;;;;;0.90;0.85;;;;;;;3.18;70.26;99315.97;10560969;28;20416;-84
2023/03/08 15:36:48;;;;;;;0.55;0.55;;;;;;;3.19;69.98;99313.41;10549556;28;20035;-83
2023/03/08 15:41:50;;;;;;;2.35;1.45;;;;;;;3.10;69.96;99313.19;10542163;28;20173;-82
2023/03/08 15:46:51;;;;;;;6.35;1.60;;;;;;;3.17;70.37;99299.56;10551792;28;20772;-82
2023/03/08 15:51:53;;;;;;;8.82;3.00;;;;;;;3.02;70.51;99312.16;10554796;27;20139;-83
2023/03/08 15:56:57;;;;;;;3.20;1.73;;;;;;;2.92;70.31;99303.28;10560934;28;20036;-82
2023/03/08 16:01:58;;;;;;;9.02;3.75;;;;;;;2.80;70.48;99298.69;10553144;27;20044;-82
2023/03/08 16:07:00;;;;;;;1.92;1.35;;;;;;;2.90;70.15;99299.81;10541366;27;20524;-82
2023/03/08 16:12:01;;;;;;;1.65;0.90;;;;;;;2.81;69.79;99303.03;10530701;27;20032;-82
2023/03/08 16:17:04;;;;;;;1.48;0.98;;;;;;;2.79;69.20;99309.00;10557527;27;20037;-84
2023/03/08 16:22:06;;;;;;;2.28;1.40;;;;;;;2.72;69.15;99310.56;10553576;28;20089;-85
2023/03/08 16:27:08;;;;;;;3.55;1.42;;;;;;;2.65;69.11;99306.06;10552287;27;20517;-81
2023/03/08 16:32:13;;;;;;;1.33;0.98;;;;;;;2.60;69.56;99313.72;10566742;28;20514;-81
2023/03/08 16:37:19;;;;;;;2.30;1.70;;;;;;;2.64;69.63;99312.97;10553805;27;20145;-81
2023/03/08 16:42:21;;;;;;;1.52;1.35;;;;;;;2.49;70.10;99312.56;10549055;27;20067;-81
2023/03/08 16:47:24;;;;;;;2.20;1.48;;;;;;;2.41;70.48;99320.09;10548063;28;20046;-82
2023/03/08 16:52:26;;;;;;;2.65;1.52;;;;;;;2.28;70.35;99326.69;10548749;28;20392;-82
2023/03/08 16:57:28;;;;;;;2.22;1.23;;;;;;;2.22;70.80;99318.75;10541514;28;20050;-82
2023/03/08 17:02:29;;;;;;;2.22;1.20;;;;;;;2.17;71.43;99316.88;10554775;28;20058;-82
2023/03/08 17:07:31;;;;;;;8.43;1.65;;;;;;;2.05;72.92;99320.00;10530334;28;20047;-83
2023/03/08 17:12:32;;;;;;;3.03;1.88;;;;;;;2.00;73.64;99327.63;10557651;28;20047;-82
2023/03/08 17:17:34;;;;;;;1.13;0.77;;;;;;;1.97;74.73;99340.44;10535582;27;20177;-82
2023/03/08 17:22:36;;;;;;;1.92;1.05;;;;;;;1.80;74.89;99331.34;10533200;28;20051;-82
2023/03/08 17:27:37;;;;;;;3.85;1.52;;;;;;;1.74;75.59;99329.44;10532284;28;20047;-82
2023/03/08 17:32:39;;;;;;;5.18;2.55;;;;;;;1.72;76.15;99325.94;10560274;28;20044;-83
2023/03/08 17:37:40;;;;;;;4.38;2.67;;;;;;;1.63;76.28;99325.69;10556235;27;20084;-84
2023/03/08 17:42:42;;;;;;;9.25;5.57;;;;;;;1.59;76.29;99325.59;10560508;28;20077;-81
2023/03/08 17:47:43;;;;;;;11.05;4.93;;;;;;;1.53;76.97;99332.25;10558279;28;20047;-82
2023/03/08 17:52:45;;;;;;;3.08;1.38;;;;;;;1.48;77.31;99332.13;10551560;28;20422;-81
2023/03/08 17:57:47;;;;;;;4.35;1.98;;;;;;;1.46;77.56;99320.03;10577151;28;20046;-82
2023/03/08 18:02:48;;;;;;;4.20;3.00;;;;;;;1.36;77.93;99312.00;10572148;28;20570;-82
2023/03/08 18:07:50;;;;;;;7.10;1.65;;;;;;;1.26;78.02;99316.81;10568308;27;20081;-82
2023/03/08 18:12:51;;;;;;;4.07;2.03;;;;;;;1.20;78.50;99317.50;10605401;27;20058;-81
2023/03/08 18:17:53;;;;;;;0.95;0.85;;;;;;;1.16;78.91;99298.50;10567239;27;20036;-81
2023/03/08 18:22:55;;;;;;;3.42;2.45;;;;;;;1.12;78.91;99294.06;10542750;28;20134;-81
2023/03/08 18:27:56;;;;;;;2.35;1.55;;;;;;;1.11;79.19;99289.75;10540320;28;20515;-81
2023/03/08 18:32:58;;;;;;;5.20;2.58;;;;;;;1.05;79.42;99285.28;10535842;28;20471;-81
2023/03/08 18:38:00;;;;;;;3.47;1.75;;;;;;;1.04;79.84;99282.66;10549851;28;20047;-81
2023/03/08 18:43:02;;;;;;;4.03;2.15;;;;;;;1.03;80.10;99275.75;10532175;28;20050;-81
2023/03/08 18:48:04;;;;;;;2.05;1.27;;;;;;;1.00;80.29;99273.94;10528575;28;20036;-81
2023/03/08 18:53:05;;;;;;;8.38;5.10;;;;;;;1.00;80.18;99273.06;10552008;28;20035;-82
2023/03/08 18:58:07;;;;;;;3.70;2.10;;;;;;;0.98;80.77;99274.75;10547227;28;20581;-81
2023/03/08 19:03:09;;;;;;;15.20;5.55;;;;;;;1.04;80.55;99280.94;10543156;28;20050;-81
2023/03/08 19:08:11;;;;;;;1.70;1.27;;;;;;;1.07;80.43;99298.22;10555238;28;20047;-81
2023/03/08 19:13:13;;;;;;;3.03;1.30;;;;;;;1.09;80.46;99311.16;10549905;28;20044;-82
2023/03/08 19:18:15;;;;;;;1.70;1.17;;;;;;;1.10;80.43;99306.03;10534329;28;20046;-82
2023/03/08 19:23:17;;;;;;;1.85;1.15;;;;;;;1.08;80.98;99315.41;10543477;28;20044;-81
2023/03/08 19:28:18;;;;;;;3.45;1.83;;;;;;;1.03;80.90;99311.84;10552120;28;20051;-81
2023/03/08 19:33:20;;;;;;;2.53;1.92;;;;;;;0.98;81.20;99323.72;10543741;28;20061;-83
2023/03/08 19:38:32;;;;;;;4.50;2.03;;;;;;;0.96;81.52;99315.03;10542833;28;20247;-81
2023/03/08 19:43:33;;;;;;;1.65;1.13;;;;;;;0.85;81.51;99315.56;10553407;28;20055;-81
2023/03/08 19:48:35;;;;;;;2.47;1.58;;;;;;;0.78;81.99;99323.03;10559321;28;20040;-81
2023/03/08 19:53:37;;;;;;;2.67;2.05;;;;;;;0.79;82.38;99317.94;10554112;28;20090;-81
2023/03/08 19:58:39;;;;;;;1.55;1.13;;;;;;;0.79;82.57;99312.78;10539473;28;20052;-81
2023/03/08 20:03:42;;;;;;;3.40;2.15;;;;;;;0.70;83.12;99317.66;10513715;28;20039;-81
2023/03/08 20:08:45;;;;;;;3.78;2.20;;;;;;;0.65;83.30;99324.34;10541918;28;20040;-80
2023/03/08 20:13:47;;;;;;;3.17;2.33;;;;;;;0.60;83.49;99320.72;10544625;28;20040;-81
2023/03/08 20:18:50;;;;;;;3.80;2.78;;;;;;;0.56;83.59;99318.91;10567088;28;20565;-81
2023/03/08 20:23:56;;;;;;;2.33;1.75;;;;;;;0.51;84.20;99324.78;10586029;28;20041;-81
2023/03/08 20:28:58;;;;;;;4.22;2.63;;;;;;;0.45;83.81;99324.56;10571168;28;20047;-82
2023/03/08 20:34:00;;;;;;;3.88;2.25;;;;;;;0.34;84.10;99320.72;10548451;28;20039;-81
2023/03/08 20:39:02;;;;;;;1.67;1.45;;;;;;;0.34;83.94;99321.59;10545210;28;20229;-81
2023/03/08 20:44:04;;;;;;;0.95;0.73;;;;;;;0.35;83.69;99330.22;10554476;28;20407;-81
2023/03/08 20:49:07;;;;;;;1.20;0.90;;;;;;;0.28;84.00;99312.78;10550822;28;20538;-82
2023/03/08 20:54:11;;;;;;;1.48;1.20;;;;;;;0.26;83.79;99306.72;10547404;28;20421;-82
2023/03/08 20:59:14;;;;;;;3.42;1.20;;;;;;;0.16;84.02;99296.09;10548697;28;20077;-81
2023/03/08 21:04:16;;;;;;;2.45;1.67;;;;;;;0.09;84.07;99301.88;10542871;28;20069;-81
2023/03/08 21:09:18;;;;;;;2.47;1.60;;;;;;;0.11;84.21;99300.22;10541347;28;20040;-81
2023/03/08 21:14:20;;;;;;;1.95;1.35;;;;;;;0.03;84.37;99291.38;10549682;28;20058;-82
2023/03/08 21:19:22;;;;;;;1.48;1.25;;;;;;;-0.08;84.43;99270.38;10568379;28;20054;-82
2023/03/08 21:24:25;;;;;;;0.93;0.70;;;;;;;-0.09;84.29;99260.03;10556934;28;20040;-82
2023/03/08 21:29:27;;;;;;;1.13;0.80;;;;;;;-0.10;84.77;99276.31;10556899;28;20051;-82
2023/03/08 21:34:29;;;;;;;1.15;0.95;;;;;;;-0.11;84.75;99289.97;10560851;27;20043;-83
2023/03/08 21:39:31;;;;;;;3.50;1.23;;;;;;;-0.17;85.04;99284.63;10552239;28;20040;-82
2023/03/08 21:44:32;;;;;;;1.23;1.08;;;;;;;-0.19;84.78;99285.44;10572351;28;20134;-82
2023/03/08 21:49:34;;;;;;;12.95;3.05;;;;;;;-0.21;85.00;99279.38;10556361;28;20388;-81
2023/03/08 21:54:36;;;;;;;2.83;2.08;;;;;;;-0.22;85.32;99262.16;10571993;27;20452;-82
2023/03/08 21:59:38;;;;;;;0.90;0.80;;;;;;;-0.21;85.15;99273.31;10571773;27;20047;-83
2023/03/08 22:04:39;;;;;;;0.73;0.60;;;;;;;-0.29;85.41;99272.19;10584498;27;20053;-82
2023/03/08 22:09:41;;;;;;;3.92;1.42;;;;;;;-0.33;85.44;99276.34;10550585;28;20044;-82
2023/03/08 22:14:43;;;;;;;0.65;0.65;;;;;;;-0.30;85.67;99273.91;10525167;28;20043;-82
2023/03/08 22:19:44;;;;;;;0.65;0.30;;;;;;;-0.32;85.90;99270.38;10532718;28;20040;-82
2023/03/08 22:24:46;;;;;;;1.95;0.95;;;;;;;-0.29;86.15;99269.63;10536596;28;20046;-81
2023/03/08 22:29:48;;;;;;;1.40;1.05;;;;;;;-0.32;86.60;99278.09;10534926;28;20062;-82
2023/03/08 22:34:50;;;;;;;2.08;0.85;;;;;;;-0.32;86.42;99264.34;10516998;28;20048;-81
2023/03/08 22:39:52;;;;;;;0.57;0.57;;;;;;;-0.31;86.71;99266.13;10571529;28;20047;-82
2023/03/08 22:44:54;;;;;;;5.35;1.73;;;;;;;-0.28;86.61;99264.53;10594229;27;20043;-81
2023/03/08 22:49:58;;;;;;;1.48;1.10;;;;;;;-0.28;86.97;99256.81;10572447;27;20035;-80
2023/03/08 22:55:00;;;;;;;0.77;0.77;;;;;;;-0.30;87.06;99261.03;10605578;27;20279;-82
2023/03/08 23:00:04;;;;;;;2.33;1.92;;;;;;;-0.29;87.27;99257.63;10565414;28;20036;-82
2023/03/08 23:05:06;;;;;;;3.20;2.22;;;;;;;-0.30;87.24;99260.13;10540043;28;20031;-82
2023/03/08 23:10:09;;;;;;;1.25;0.95;;;;;;;-0.33;87.36;99258.34;10584084;27;20423;-82
2023/03/08 23:15:11;;;;;;;0.85;0.80;;;;;;;-0.36;87.37;99261.69;10539029;27;20043;-82
2023/03/08 23:20:13;;;;;;;1.52;0.85;;;;;;;-0.32;87.74;99262.66;10591968;27;20047;-82
2023/03/08 23:25:16;;;;;;;1.38;1.23;;;;;;;-0.38;87.63;99245.28;10549556;28;20040;-82
2023/03/08 23:30:19;;;;;;;1.58;1.13;;;;;;;-0.38;87.66;99237.56;10528824;28;20474;-82
2023/03/08 23:35:21;;;;;;;1.15;1.05;;;;;;;-0.38;87.92;99242.72;10564326;28;20035;-81
2023/03/08 23:40:22;;;;;;;1.50;1.33;;;;;;;-0.38;87.92;99247.88;10548821;28;20057;-82
2023/03/08 23:45:24;;;;;;;1.15;1.05;;;;;;;-0.35;87.79;99236.81;10557242;28;20499;-81
2023/03/08 23:50:26;;;;;;;1.55;0.82;;;;;;;-0.38;88.33;99229.00;10557972;28;20039;-81